createdAt,value
2018-11-14T00:00:17.258Z,4.8
2018-11-14T00:05:17.299Z,4.9
2018-11-14T00:10:18.929Z,4.7
2018-11-14T00:15:17.378Z,3.1
2018-11-14T00:20:17.715Z,5
2018-11-14T00:25:17.702Z,4.8
2018-11-14T00:30:18.335Z,6.1
2018-11-14T00:35:17.366Z,4.9
2018-11-14T00:40:17.563Z,5.7
2018-11-14T00:45:17.702Z,5.4
2018-11-14T00:50:17.910Z,5.1
2018-11-14T00:55:16.834Z,4.9
2018-11-14T01:00:17.994Z,5.1
2018-11-14T01:05:16.833Z,3.5
2018-11-14T01:10:17.047Z,5
2018-11-14T01:15:17.058Z,3.7
2018-11-14T01:20:17.415Z,5.9
2018-11-14T01:25:17.382Z,3.2
2018-11-14T01:30:17.633Z,5.3
2018-11-14T01:35:18.070Z,5.6
2018-11-14T01:40:17.113Z,6.2
2018-11-14T01:45:16.971Z,4
2018-11-14T01:50:16.958Z,5.9
2018-11-14T01:55:16.834Z,6.3
2018-11-14T02:00:17.918Z,6.8
2018-11-14T02:05:16.984Z,5.9
2018-11-14T02:10:17.369Z,8.1
2018-11-14T02:15:17.175Z,7.5
2018-11-14T02:20:17.242Z,7.1
2018-11-14T02:25:17.074Z,6.9
2018-11-14T02:30:16.913Z,7.4
2018-11-14T02:35:17.039Z,7.8
2018-11-14T02:40:17.362Z,7.3
2018-11-14T02:45:17.487Z,8.4
2018-11-14T02:50:17.305Z,8
2018-11-14T02:55:17.138Z,7.6
2018-11-14T03:00:17.013Z,8.1
2018-11-14T03:05:17.262Z,8.7
2018-11-14T03:10:17.635Z,8.8
2018-11-14T03:15:17.446Z,8.9
2018-11-14T03:20:17.528Z,9.1
2018-11-14T03:25:17.335Z,9.8
2018-11-14T03:30:17.359Z,10.5
2018-11-14T03:35:17.196Z,6.8
2018-11-14T03:40:17.309Z,10.7
2018-11-14T03:45:17.129Z,5.6
2018-11-14T03:50:16.906Z,6.1
2018-11-14T03:55:16.682Z,4.8
2018-11-14T04:00:17.558Z,10.8
2018-11-14T04:05:17.404Z,8.4
2018-11-14T04:10:17.577Z,10
2018-11-14T04:15:17.357Z,8.2
2018-11-14T04:20:17.413Z,10.4
2018-11-14T04:25:17.230Z,10.7
2018-11-14T04:30:17.028Z,7.5
2018-11-14T04:35:16.838Z,12.4
2018-11-14T04:40:16.838Z,8.9
2018-11-14T04:45:17.911Z,13.4
2018-11-14T04:50:16.728Z,14.5
2018-11-14T04:55:17.909Z,15.7
2018-11-14T05:00:16.786Z,7
2018-11-14T05:05:17.813Z,16.8
2018-11-14T05:10:16.794Z,12.2
2018-11-14T05:15:18.102Z,19.6
2018-11-14T05:20:17.124Z,10.1
2018-11-14T05:25:16.932Z,22.7
2018-11-14T05:30:16.721Z,18.9
2018-11-14T05:35:17.694Z,25.9
2018-11-14T05:40:18.019Z,16.8
2018-11-14T05:45:16.918Z,25.9
2018-11-14T05:50:16.758Z,25.6
2018-11-14T05:55:17.775Z,26.3
2018-11-14T06:00:17.928Z,19.8
2018-11-14T06:05:17.026Z,28.6
2018-11-14T06:10:17.255Z,28.9
2018-11-14T06:15:17.373Z,28.7
2018-11-14T06:20:17.662Z,27.5
2018-11-14T06:25:18.157Z,23.3
2018-11-14T06:30:17.325Z,31.1
2018-11-14T06:35:17.406Z,23.7
2018-11-14T06:40:17.521Z,23.5
2018-11-14T06:45:17.514Z,29.7
2018-11-14T06:50:17.604Z,35.5
2018-11-14T06:55:17.681Z,35.5
2018-11-14T07:00:17.708Z,36.2
2018-11-14T07:05:18.064Z,23.7
2018-11-14T07:10:17.389Z,23.2
2018-11-14T07:15:17.310Z,18.3
2018-11-14T07:20:17.411Z,38.2
2018-11-14T07:25:17.729Z,33.7
2018-11-14T07:30:17.701Z,39
2018-11-14T07:35:17.642Z,28.6
2018-11-14T07:40:17.762Z,37.2
2018-11-14T07:45:17.978Z,37.6
2018-11-14T07:50:17.255Z,36.9
2018-11-14T07:55:17.545Z,25.3
2018-11-14T08:00:17.790Z,36.7
2018-11-14T08:05:18.185Z,35.9
2018-11-14T08:10:17.585Z,36.6
2018-11-14T08:15:17.522Z,36.4
2018-11-14T08:20:17.786Z,36
2018-11-14T08:25:17.925Z,18.2
2018-11-14T08:30:17.162Z,33.9
2018-11-14T08:35:17.106Z,34.1
2018-11-14T08:40:17.431Z,34.6
2018-11-14T08:45:17.362Z,34.3
2018-11-14T08:50:17.664Z,34.7
2018-11-14T08:55:17.862Z,35.1
2018-11-14T09:00:18.020Z,24.6
2018-11-14T09:05:16.958Z,34.9
2018-11-14T09:10:17.399Z,34.5
2018-11-14T09:15:17.358Z,36.6
2018-11-14T09:20:17.613Z,38
2018-11-14T09:25:17.778Z,37.7
2018-11-14T09:30:17.922Z,19.1
2018-11-14T09:35:16.807Z,35.7
2018-11-14T09:40:17.591Z,34.2
2018-11-14T09:45:17.653Z,20.8
2018-11-14T09:50:17.809Z,31.3
2018-11-14T09:55:17.806Z,30.4
2018-11-14T10:00:17.731Z,29.4
2018-11-14T10:05:17.802Z,27.8
2018-11-14T10:10:16.974Z,32.1
2018-11-14T10:15:16.838Z,21.6
2018-11-14T10:20:16.883Z,29.4
2018-11-14T10:25:18.011Z,29.6
2018-11-14T10:30:17.248Z,29.3
2018-11-14T10:35:17.463Z,28
2018-11-14T10:40:17.772Z,27.4
2018-11-14T10:45:17.650Z,20.8
2018-11-14T10:50:17.761Z,27.1
2018-11-14T10:55:17.682Z,18.4
2018-11-14T11:00:17.577Z,25.9
2018-11-14T11:05:17.890Z,25.2
2018-11-14T11:10:17.152Z,25.3
2018-11-14T11:15:17.109Z,25.6
2018-11-14T11:20:17.264Z,21.2
2018-11-14T11:25:17.467Z,26.6
2018-11-14T11:30:17.434Z,13.9
2018-11-14T11:35:17.590Z,27
2018-11-14T11:40:17.838Z,13.7
2018-11-14T11:45:17.713Z,26.3
2018-11-14T11:50:17.846Z,19.5
2018-11-14T11:55:17.959Z,27.2
2018-11-14T12:00:17.618Z,29.5
2018-11-14T12:05:17.729Z,17.4
2018-11-14T12:10:17.114Z,31.1
2018-11-14T12:15:17.117Z,32.2
2018-11-14T12:20:17.271Z,19.2
2018-11-14T12:25:17.202Z,33.3
2018-11-14T12:30:17.131Z,33.6
2018-11-14T12:35:17.775Z,33.2
2018-11-14T12:40:16.914Z,34.3
2018-11-14T12:45:17.231Z,32.8
2018-11-14T12:50:17.270Z,22.6
2018-11-14T12:55:17.286Z,32.9
2018-11-14T13:00:17.387Z,33.7
2018-11-14T13:05:17.737Z,31.7
2018-11-14T13:10:16.760Z,21.6
2018-11-14T13:15:17.697Z,33.9
2018-11-14T13:20:18.028Z,34.2
2018-11-14T13:25:17.144Z,33.8
2018-11-14T13:30:17.054Z,20.3
2018-11-14T13:35:17.387Z,34.1
2018-11-14T13:40:17.707Z,22.6
2018-11-14T13:45:17.666Z,33.5
2018-11-14T13:50:18.306Z,35.1
2018-11-14T13:55:17.353Z,26.6
2018-11-14T14:00:17.302Z,33
2018-11-14T14:05:17.418Z,21.3
2018-11-14T14:10:17.637Z,32.8
2018-11-14T14:15:17.638Z,34
2018-11-14T14:20:18.418Z,34.2
2018-11-14T14:25:17.348Z,32.9
2018-11-14T14:30:17.332Z,19.2
2018-11-14T14:35:17.247Z,32.5
2018-11-14T14:40:17.417Z,22.1
2018-11-14T14:45:17.568Z,31.8
2018-11-14T14:50:17.570Z,30.9
2018-11-14T14:55:17.630Z,27.6
2018-11-14T15:00:17.578Z,29.6
2018-11-14T15:05:17.457Z,16.4
2018-11-14T15:10:17.853Z,28.1
2018-11-14T15:15:17.736Z,27.1
2018-11-14T15:20:16.821Z,22.4
2018-11-14T15:25:17.898Z,24.5
2018-11-14T15:30:17.732Z,23.5
2018-11-14T15:35:18.035Z,23
2018-11-14T15:40:17.621Z,15.6
2018-11-14T15:45:17.562Z,19.7
2018-11-14T15:50:17.530Z,19.6
2018-11-14T15:55:17.676Z,19.2
2018-11-14T16:00:17.646Z,15.4
2018-11-14T16:05:17.834Z,18.2
2018-11-14T16:10:16.958Z,16.5
2018-11-14T16:15:17.066Z,15.7
2018-11-14T16:20:17.349Z,14.7
2018-11-14T16:25:17.418Z,10.3
2018-11-14T16:30:17.370Z,14.2
2018-11-14T16:35:17.534Z,14.3
2018-11-14T16:40:17.809Z,10.2
2018-11-14T16:45:17.757Z,12.2
2018-11-14T16:50:17.858Z,12.2
2018-11-14T16:55:17.810Z,11.4
2018-11-14T17:00:17.782Z,11.3
2018-11-14T17:05:17.750Z,7.6
2018-11-14T17:10:17.126Z,10.8
2018-11-14T17:15:17.041Z,7.2
2018-11-14T17:20:17.326Z,9.6
2018-11-14T17:25:17.618Z,4.9
2018-11-14T17:30:17.707Z,8.9
2018-11-14T17:35:17.574Z,5.5
2018-11-14T17:40:17.709Z,9.5
2018-11-14T17:45:17.747Z,5.7
2018-11-14T17:50:17.802Z,8.5
2018-11-14T17:55:18.042Z,7.7
2018-11-14T18:00:17.218Z,7.4
2018-11-14T18:05:17.351Z,5.3
2018-11-14T18:10:17.511Z,7.5
2018-11-14T18:15:17.619Z,7
2018-11-14T18:20:17.857Z,7.4
2018-11-14T18:25:17.730Z,4.8
2018-11-14T18:30:17.598Z,7
2018-11-14T18:35:17.597Z,7.2
2018-11-14T18:40:17.927Z,7.8
2018-11-14T18:45:17.066Z,6.6
2018-11-14T18:50:17.076Z,7.4
2018-11-14T18:55:17.021Z,7
2018-11-14T19:00:17.340Z,6.7
2018-11-14T19:05:17.211Z,2.4
2018-11-14T19:10:17.350Z,5.9
2018-11-14T19:15:17.238Z,4.1
2018-11-14T19:20:17.585Z,6.1
2018-11-14T19:25:17.549Z,5
2018-11-14T19:30:17.670Z,5.4
2018-11-14T19:35:17.813Z,5.9
2018-11-14T19:40:17.119Z,5.7
2018-11-14T19:45:17.066Z,5.7
2018-11-14T19:50:17.026Z,4.9
2018-11-14T19:55:17.412Z,5.3
2018-11-14T20:00:17.581Z,5.5
2018-11-14T20:05:17.510Z,5.2
2018-11-14T20:10:17.989Z,4.9
2018-11-14T20:15:17.070Z,5.6
2018-11-14T20:20:17.221Z,4.1
2018-11-14T20:25:17.413Z,5.2
2018-11-14T20:30:17.495Z,5.4
2018-11-14T20:35:17.634Z,3.9
2018-11-14T20:40:17.778Z,5.3
2018-11-14T20:45:17.909Z,3.8
2018-11-14T20:50:16.818Z,5.2
2018-11-14T20:55:17.734Z,3.8
2018-11-14T21:00:17.698Z,5.8
2018-11-14T21:05:17.687Z,5.6
2018-11-14T21:10:17.786Z,3.9
2018-11-14T21:15:18.231Z,5.8
2018-11-14T21:20:17.639Z,5.8
2018-11-14T21:25:17.770Z,5.6
2018-11-14T21:30:17.746Z,4.6
2018-11-14T21:35:17.753Z,6.8
2018-11-14T21:40:16.908Z,3.8
2018-11-14T21:45:17.074Z,6.5
2018-11-14T21:50:16.989Z,6
2018-11-14T21:55:16.851Z,6.1
2018-11-14T22:00:17.833Z,4.2
2018-11-14T22:05:18.262Z,6.3
2018-11-14T22:10:17.650Z,6.5
2018-11-14T22:15:17.670Z,6.6
2018-11-14T22:20:17.842Z,6.3
2018-11-14T22:25:16.877Z,6.1
2018-11-14T22:30:17.825Z,6
2018-11-14T22:35:18.192Z,6.5
2018-11-14T22:40:17.354Z,4.1
2018-11-14T22:45:17.522Z,5.9
2018-11-14T22:50:17.543Z,5.4
2018-11-14T22:55:17.621Z,5.4
2018-11-14T23:00:17.754Z,5.6
2018-11-14T23:05:17.681Z,5.8
2018-11-14T23:10:17.814Z,5.3
2018-11-14T23:15:18.032Z,3.7
2018-11-14T23:20:17.317Z,5.2
2018-11-14T23:25:17.214Z,5.1
2018-11-14T23:30:17.203Z,4.2
2018-11-14T23:35:17.323Z,4.6
2018-11-14T23:40:17.474Z,4.9
2018-11-14T23:45:17.617Z,5
2018-11-14T23:50:17.608Z,3.7
2018-11-14T23:55:17.822Z,4.6
